sensor_id;sensor_type;location;lat;lon;timestamp;P1;durP1;ratioP1;P2;durP2;ratioP2
10851;SDS011;5479;52.046;6.314;2022-12-07T00:01:18;20.00;;;14.63;;
10851;SDS011;5479;52.046;6.314;2022-12-07T00:03:48;17.40;;;14.30;;
10851;SDS011;5479;52.046;6.314;2022-12-07T00:06:19;16.87;;;14.27;;
10851;SDS011;5479;52.046;6.314;2022-12-07T00:08:47;16.97;;;14.20;;
10851;SDS011;5479;52.046;6.314;2022-12-07T00:11:16;17.40;;;13.93;;
10851;SDS011;5479;52.046;6.314;2022-12-07T00:13:46;16.97;;;14.10;;
10851;SDS011;5479;52.046;6.314;2022-12-07T00:16:15;19.03;;;13.70;;
10851;SDS011;5479;52.046;6.314;2022-12-07T00:18:44;17.17;;;13.17;;
10851;SDS011;5479;52.046;6.314;2022-12-07T00:21:14;20.57;;;14.37;;
10851;SDS011;5479;52.046;6.314;2022-12-07T00:23:45;17.57;;;13.47;;
10851;SDS011;5479;52.046;6.314;2022-12-07T00:26:35;16.50;;;13.93;;
10851;SDS011;5479;52.046;6.314;2022-12-07T00:29:05;16.87;;;13.40;;
10851;SDS011;5479;52.046;6.314;2022-12-07T00:31:35;17.03;;;13.33;;
10851;SDS011;5479;52.046;6.314;2022-12-07T00:34:05;16.07;;;12.57;;
10851;SDS011;5479;52.046;6.314;2022-12-07T00:36:33;17.23;;;13.40;;
10851;SDS011;5479;52.046;6.314;2022-12-07T00:39:04;15.80;;;13.37;;
10851;SDS011;5479;52.046;6.314;2022-12-07T00:41:32;22.30;;;13.13;;
10851;SDS011;5479;52.046;6.314;2022-12-07T00:44:00;15.97;;;12.90;;
10851;SDS011;5479;52.046;6.314;2022-12-07T00:46:28;16.40;;;13.00;;
10851;SDS011;5479;52.046;6.314;2022-12-07T00:48:57;18.00;;;13.17;;
10851;SDS011;5479;52.046;6.314;2022-12-07T00:51:25;16.53;;;12.73;;
10851;SDS011;5479;52.046;6.314;2022-12-07T00:53:53;15.73;;;13.03;;
10851;SDS011;5479;52.046;6.314;2022-12-07T00:56:23;17.03;;;13.00;;
10851;SDS011;5479;52.046;6.314;2022-12-07T00:58:54;16.17;;;11.73;;
10851;SDS011;5479;52.046;6.314;2022-12-07T01:01:24;16.53;;;12.20;;
10851;SDS011;5479;52.046;6.314;2022-12-07T01:03:54;17.50;;;11.73;;
10851;SDS011;5479;52.046;6.314;2022-12-07T01:06:22;15.37;;;11.77;;
10851;SDS011;5479;52.046;6.314;2022-12-07T01:08:51;14.70;;;11.37;;
10851;SDS011;5479;52.046;6.314;2022-12-07T01:11:20;13.53;;;10.43;;
10851;SDS011;5479;52.046;6.314;2022-12-07T01:13:51;16.37;;;11.53;;
10851;SDS011;5479;52.046;6.314;2022-12-07T01:16:20;16.03;;;11.60;;
10851;SDS011;5479;52.046;6.314;2022-12-07T01:18:49;14.33;;;10.17;;
10851;SDS011;5479;52.046;6.314;2022-12-07T01:21:19;12.80;;;9.80;;
10851;SDS011;5479;52.046;6.314;2022-12-07T01:23:48;11.43;;;9.40;;
10851;SDS011;5479;52.046;6.314;2022-12-07T01:26:17;10.90;;;8.80;;
10851;SDS011;5479;52.046;6.314;2022-12-07T01:28:46;12.77;;;8.87;;
10851;SDS011;5479;52.046;6.314;2022-12-07T01:31:16;12.37;;;8.30;;
10851;SDS011;5479;52.046;6.314;2022-12-07T01:33:47;13.93;;;8.10;;
10851;SDS011;5479;52.046;6.314;2022-12-07T01:36:16;11.53;;;7.93;;
10851;SDS011;5479;52.046;6.314;2022-12-07T01:38:46;12.40;;;7.83;;
10851;SDS011;5479;52.046;6.314;2022-12-07T01:41:16;10.90;;;7.43;;
10851;SDS011;5479;52.046;6.314;2022-12-07T01:46:46;11.27;;;7.00;;
10851;SDS011;5479;52.046;6.314;2022-12-07T01:49:17;10.97;;;6.70;;
10851;SDS011;5479;52.046;6.314;2022-12-07T01:51:50;10.70;;;7.33;;
10851;SDS011;5479;52.046;6.314;2022-12-07T01:54:23;10.37;;;6.90;;
10851;SDS011;5479;52.046;6.314;2022-12-07T01:56:54;11.17;;;7.23;;
10851;SDS011;5479;52.046;6.314;2022-12-07T01:59:24;9.27;;;6.87;;
10851;SDS011;5479;52.046;6.314;2022-12-07T02:01:55;12.20;;;6.93;;
10851;SDS011;5479;52.046;6.314;2022-12-07T02:04:23;10.70;;;7.03;;
10851;SDS011;5479;52.046;6.314;2022-12-07T02:06:51;12.63;;;7.30;;
10851;SDS011;5479;52.046;6.314;2022-12-07T02:09:22;10.57;;;7.33;;
10851;SDS011;5479;52.046;6.314;2022-12-07T02:11:50;10.20;;;6.63;;
10851;SDS011;5479;52.046;6.314;2022-12-07T02:14:19;10.97;;;6.70;;
10851;SDS011;5479;52.046;6.314;2022-12-07T02:16:49;13.57;;;7.03;;
10851;SDS011;5479;52.046;6.314;2022-12-07T02:25:50;10.57;;;6.70;;
10851;SDS011;5479;52.046;6.314;2022-12-07T02:28:31;10.53;;;6.60;;
10851;SDS011;5479;52.046;6.314;2022-12-07T02:31:04;10.87;;;7.00;;
10851;SDS011;5479;52.046;6.314;2022-12-07T02:33:37;10.37;;;6.33;;
10851;SDS011;5479;52.046;6.314;2022-12-07T02:36:10;11.57;;;7.10;;
10851;SDS011;5479;52.046;6.314;2022-12-07T02:38:45;9.80;;;6.17;;
10851;SDS011;5479;52.046;6.314;2022-12-07T02:41:20;11.63;;;6.50;;
10851;SDS011;5479;52.046;6.314;2022-12-07T02:43:52;11.77;;;7.00;;
10851;SDS011;5479;52.046;6.314;2022-12-07T02:46:25;12.33;;;7.40;;
10851;SDS011;5479;52.046;6.314;2022-12-07T02:48:57;9.17;;;6.70;;
10851;SDS011;5479;52.046;6.314;2022-12-07T02:51:29;11.13;;;7.20;;
10851;SDS011;5479;52.046;6.314;2022-12-07T02:53:58;10.30;;;7.23;;
10851;SDS011;5479;52.046;6.314;2022-12-07T02:56:27;10.50;;;6.70;;
10851;SDS011;5479;52.046;6.314;2022-12-07T02:59:07;11.17;;;6.50;;
10851;SDS011;5479;52.046;6.314;2022-12-07T03:01:48;11.93;;;6.63;;
10851;SDS011;5479;52.046;6.314;2022-12-07T03:04:28;10.60;;;6.57;;
10851;SDS011;5479;52.046;6.314;2022-12-07T03:07:11;10.67;;;6.70;;
10851;SDS011;5479;52.046;6.314;2022-12-07T03:09:47;13.20;;;6.83;;
10851;SDS011;5479;52.046;6.314;2022-12-07T03:12:21;11.27;;;6.60;;
10851;SDS011;5479;52.046;6.314;2022-12-07T03:14:55;11.47;;;6.47;;
10851;SDS011;5479;52.046;6.314;2022-12-07T03:17:37;11.33;;;6.47;;
10851;SDS011;5479;52.046;6.314;2022-12-07T03:20:08;11.73;;;6.57;;
10851;SDS011;5479;52.046;6.314;2022-12-07T03:22:38;10.90;;;6.30;;
10851;SDS011;5479;52.046;6.314;2022-12-07T03:25:10;11.53;;;6.83;;
10851;SDS011;5479;52.046;6.314;2022-12-07T03:27:42;11.80;;;6.57;;
10851;SDS011;5479;52.046;6.314;2022-12-07T03:30:14;9.80;;;6.27;;
10851;SDS011;5479;52.046;6.314;2022-12-07T03:32:47;10.20;;;6.07;;
10851;SDS011;5479;52.046;6.314;2022-12-07T03:35:20;8.87;;;6.00;;
10851;SDS011;5479;52.046;6.314;2022-12-07T03:37:54;10.47;;;6.63;;
10851;SDS011;5479;52.046;6.314;2022-12-07T03:40:26;11.23;;;6.20;;
10851;SDS011;5479;52.046;6.314;2022-12-07T03:42:57;10.17;;;5.80;;
10851;SDS011;5479;52.046;6.314;2022-12-07T03:45:31;9.00;;;6.10;;
10851;SDS011;5479;52.046;6.314;2022-12-07T03:48:07;10.00;;;5.57;;
10851;SDS011;5479;52.046;6.314;2022-12-07T03:50:38;9.83;;;5.80;;
10851;SDS011;5479;52.046;6.314;2022-12-07T03:53:13;9.33;;;6.20;;
10851;SDS011;5479;52.046;6.314;2022-12-07T03:55:46;10.87;;;5.73;;
10851;SDS011;5479;52.046;6.314;2022-12-07T03:58:16;8.47;;;5.80;;
10851;SDS011;5479;52.046;6.314;2022-12-07T04:00:48;11.03;;;5.50;;
10851;SDS011;5479;52.046;6.314;2022-12-07T04:03:18;10.03;;;5.47;;
10851;SDS011;5479;52.046;6.314;2022-12-07T04:05:46;12.67;;;5.57;;
10851;SDS011;5479;52.046;6.314;2022-12-07T04:08:14;8.10;;;5.10;;
10851;SDS011;5479;52.046;6.314;2022-12-07T04:10:43;9.53;;;5.27;;
10851;SDS011;5479;52.046;6.314;2022-12-07T04:13:11;8.57;;;5.10;;
10851;SDS011;5479;52.046;6.314;2022-12-07T04:15:39;7.40;;;4.83;;
10851;SDS011;5479;52.046;6.314;2022-12-07T04:18:07;8.27;;;4.77;;
10851;SDS011;5479;52.046;6.314;2022-12-07T04:20:38;7.50;;;4.80;;
10851;SDS011;5479;52.046;6.314;2022-12-07T04:23:06;7.80;;;4.47;;
10851;SDS011;5479;52.046;6.314;2022-12-07T04:25:34;7.87;;;4.20;;
10851;SDS011;5479;52.046;6.314;2022-12-07T04:28:02;8.73;;;4.87;;
10851;SDS011;5479;52.046;6.314;2022-12-07T04:30:30;9.73;;;4.40;;
10851;SDS011;5479;52.046;6.314;2022-12-07T04:32:58;8.23;;;4.50;;
10851;SDS011;5479;52.046;6.314;2022-12-07T04:35:26;9.97;;;4.50;;
10851;SDS011;5479;52.046;6.314;2022-12-07T04:37:55;9.97;;;4.30;;
10851;SDS011;5479;52.046;6.314;2022-12-07T04:40:23;8.37;;;4.37;;
10851;SDS011;5479;52.046;6.314;2022-12-07T04:42:51;9.73;;;4.20;;
10851;SDS011;5479;52.046;6.314;2022-12-07T04:45:19;10.33;;;4.67;;
10851;SDS011;5479;52.046;6.314;2022-12-07T04:47:47;10.63;;;4.27;;
10851;SDS011;5479;52.046;6.314;2022-12-07T04:50:15;10.13;;;4.40;;
10851;SDS011;5479;52.046;6.314;2022-12-07T04:52:43;8.87;;;4.50;;
10851;SDS011;5479;52.046;6.314;2022-12-07T04:55:13;8.53;;;4.30;;
10851;SDS011;5479;52.046;6.314;2022-12-07T04:57:41;9.77;;;4.10;;
10851;SDS011;5479;52.046;6.314;2022-12-07T05:00:09;7.23;;;3.90;;
10851;SDS011;5479;52.046;6.314;2022-12-07T05:02:37;8.23;;;3.90;;
10851;SDS011;5479;52.046;6.314;2022-12-07T05:05:06;9.63;;;4.10;;
10851;SDS011;5479;52.046;6.314;2022-12-07T05:07:34;6.47;;;3.70;;
10851;SDS011;5479;52.046;6.314;2022-12-07T05:10:03;8.90;;;3.77;;
10851;SDS011;5479;52.046;6.314;2022-12-07T05:12:33;9.20;;;4.07;;
10851;SDS011;5479;52.046;6.314;2022-12-07T05:15:01;10.47;;;3.97;;
10851;SDS011;5479;52.046;6.314;2022-12-07T05:17:28;9.00;;;4.40;;
10851;SDS011;5479;52.046;6.314;2022-12-07T05:19:56;8.23;;;4.60;;
10851;SDS011;5479;52.046;6.314;2022-12-07T05:22:24;9.40;;;4.30;;
10851;SDS011;5479;52.046;6.314;2022-12-07T05:24:54;9.80;;;4.50;;
10851;SDS011;5479;52.046;6.314;2022-12-07T05:27:22;12.33;;;4.80;;
10851;SDS011;5479;52.046;6.314;2022-12-07T05:29:51;8.73;;;4.77;;
10851;SDS011;5479;52.046;6.314;2022-12-07T05:32:19;9.77;;;5.20;;
10851;SDS011;5479;52.046;6.314;2022-12-07T05:34:47;8.67;;;4.70;;
10851;SDS011;5479;52.046;6.314;2022-12-07T05:37:15;10.10;;;5.87;;
10851;SDS011;5479;52.046;6.314;2022-12-07T05:39:44;11.03;;;6.20;;
10851;SDS011;5479;52.046;6.314;2022-12-07T05:42:12;11.60;;;6.30;;
10851;SDS011;5479;52.046;6.314;2022-12-07T05:44:40;12.93;;;6.50;;
10851;SDS011;5479;52.046;6.314;2022-12-07T05:47:10;12.97;;;6.50;;
10851;SDS011;5479;52.046;6.314;2022-12-07T05:49:42;13.23;;;5.83;;
10851;SDS011;5479;52.046;6.314;2022-12-07T05:52:09;10.10;;;5.63;;
10851;SDS011;5479;52.046;6.314;2022-12-07T05:54:37;8.83;;;5.87;;
10851;SDS011;5479;52.046;6.314;2022-12-07T05:57:07;10.03;;;6.00;;
10851;SDS011;5479;52.046;6.314;2022-12-07T05:59:36;8.97;;;5.90;;
10851;SDS011;5479;52.046;6.314;2022-12-07T06:02:03;14.67;;;6.80;;
10851;SDS011;5479;52.046;6.314;2022-12-07T06:04:34;10.37;;;6.33;;
10851;SDS011;5479;52.046;6.314;2022-12-07T06:07:03;8.97;;;5.80;;
10851;SDS011;5479;52.046;6.314;2022-12-07T06:09:31;10.70;;;5.83;;
10851;SDS011;5479;52.046;6.314;2022-12-07T06:12:00;10.67;;;5.50;;
10851;SDS011;5479;52.046;6.314;2022-12-07T06:14:46;11.07;;;5.40;;
10851;SDS011;5479;52.046;6.314;2022-12-07T06:17:14;10.87;;;5.13;;
10851;SDS011;5479;52.046;6.314;2022-12-07T06:19:44;9.87;;;5.20;;
10851;SDS011;5479;52.046;6.314;2022-12-07T06:22:13;11.47;;;5.20;;
10851;SDS011;5479;52.046;6.314;2022-12-07T06:24:42;9.37;;;5.47;;
10851;SDS011;5479;52.046;6.314;2022-12-07T06:27:11;11.30;;;5.30;;
10851;SDS011;5479;52.046;6.314;2022-12-07T06:29:39;13.80;;;6.20;;
10851;SDS011;5479;52.046;6.314;2022-12-07T06:32:07;8.27;;;5.63;;
10851;SDS011;5479;52.046;6.314;2022-12-07T06:34:35;9.40;;;5.23;;
10851;SDS011;5479;52.046;6.314;2022-12-07T06:37:05;9.97;;;5.10;;
10851;SDS011;5479;52.046;6.314;2022-12-07T06:39:32;9.33;;;5.40;;
10851;SDS011;5479;52.046;6.314;2022-12-07T06:42:00;9.07;;;5.37;;
10851;SDS011;5479;52.046;6.314;2022-12-07T06:44:28;10.67;;;5.80;;
10851;SDS011;5479;52.046;6.314;2022-12-07T06:46:56;9.07;;;5.20;;
10851;SDS011;5479;52.046;6.314;2022-12-07T06:49:24;12.07;;;5.70;;
10851;SDS011;5479;52.046;6.314;2022-12-07T06:51:52;10.23;;;5.20;;
10851;SDS011;5479;52.046;6.314;2022-12-07T06:54:22;12.13;;;5.90;;
10851;SDS011;5479;52.046;6.314;2022-12-07T06:56:50;11.07;;;5.50;;
10851;SDS011;5479;52.046;6.314;2022-12-07T06:59:18;8.50;;;5.20;;
10851;SDS011;5479;52.046;6.314;2022-12-07T07:01:46;9.17;;;5.30;;
10851;SDS011;5479;52.046;6.314;2022-12-07T07:04:14;10.23;;;5.30;;
10851;SDS011;5479;52.046;6.314;2022-12-07T07:06:43;8.67;;;5.07;;
10851;SDS011;5479;52.046;6.314;2022-12-07T07:09:11;12.47;;;6.03;;
10851;SDS011;5479;52.046;6.314;2022-12-07T07:11:40;9.43;;;5.60;;
10851;SDS011;5479;52.046;6.314;2022-12-07T07:14:08;9.23;;;5.40;;
10851;SDS011;5479;52.046;6.314;2022-12-07T07:16:37;8.70;;;5.40;;
10851;SDS011;5479;52.046;6.314;2022-12-07T07:19:05;10.03;;;5.83;;
10851;SDS011;5479;52.046;6.314;2022-12-07T07:21:33;10.07;;;6.10;;
10851;SDS011;5479;52.046;6.314;2022-12-07T07:24:00;10.00;;;5.90;;
10851;SDS011;5479;52.046;6.314;2022-12-07T07:26:29;10.70;;;6.43;;
10851;SDS011;5479;52.046;6.314;2022-12-07T07:28:58;11.03;;;6.50;;
10851;SDS011;5479;52.046;6.314;2022-12-07T07:31:26;11.23;;;6.20;;
10851;SDS011;5479;52.046;6.314;2022-12-07T07:33:54;10.67;;;6.00;;
10851;SDS011;5479;52.046;6.314;2022-12-07T07:36:22;8.57;;;5.63;;
10851;SDS011;5479;52.046;6.314;2022-12-07T07:38:50;10.67;;;5.57;;
10851;SDS011;5479;52.046;6.314;2022-12-07T07:41:18;11.20;;;5.93;;
10851;SDS011;5479;52.046;6.314;2022-12-07T07:43:45;12.73;;;5.80;;
10851;SDS011;5479;52.046;6.314;2022-12-07T07:46:15;8.90;;;5.63;;
10851;SDS011;5479;52.046;6.314;2022-12-07T07:48:43;12.20;;;6.10;;
10851;SDS011;5479;52.046;6.314;2022-12-07T07:51:11;13.00;;;6.30;;
10851;SDS011;5479;52.046;6.314;2022-12-07T07:53:39;14.03;;;5.97;;
10851;SDS011;5479;52.046;6.314;2022-12-07T07:56:07;10.90;;;6.07;;
10851;SDS011;5479;52.046;6.314;2022-12-07T07:58:35;9.67;;;5.90;;
10851;SDS011;5479;52.046;6.314;2022-12-07T08:01:05;16.17;;;5.50;;
10851;SDS011;5479;52.046;6.314;2022-12-07T08:03:35;10.50;;;5.30;;
10851;SDS011;5479;52.046;6.314;2022-12-07T08:06:03;11.67;;;6.67;;
10851;SDS011;5479;52.046;6.314;2022-12-07T08:08:31;12.50;;;5.50;;
10851;SDS011;5479;52.046;6.314;2022-12-07T08:10:59;11.60;;;5.20;;
10851;SDS011;5479;52.046;6.314;2022-12-07T08:13:27;14.27;;;5.30;;
10851;SDS011;5479;52.046;6.314;2022-12-07T08:15:55;9.23;;;5.40;;
10851;SDS011;5479;52.046;6.314;2022-12-07T08:18:23;9.87;;;5.00;;
10851;SDS011;5479;52.046;6.314;2022-12-07T08:20:58;11.63;;;5.10;;
10851;SDS011;5479;52.046;6.314;2022-12-07T08:23:26;12.73;;;4.60;;
10851;SDS011;5479;52.046;6.314;2022-12-07T08:25:59;10.07;;;5.43;;
10851;SDS011;5479;52.046;6.314;2022-12-07T08:28:27;9.37;;;4.60;;
10851;SDS011;5479;52.046;6.314;2022-12-07T08:30:58;7.30;;;4.30;;
10851;SDS011;5479;52.046;6.314;2022-12-07T08:33:27;6.03;;;3.70;;
10851;SDS011;5479;52.046;6.314;2022-12-07T08:36:01;9.50;;;4.10;;
10851;SDS011;5479;52.046;6.314;2022-12-07T08:38:34;7.77;;;4.17;;
10851;SDS011;5479;52.046;6.314;2022-12-07T08:41:02;10.30;;;4.73;;
10851;SDS011;5479;52.046;6.314;2022-12-07T08:43:30;7.87;;;3.50;;
10851;SDS011;5479;52.046;6.314;2022-12-07T08:46:01;7.93;;;3.90;;
10851;SDS011;5479;52.046;6.314;2022-12-07T08:48:34;10.07;;;3.50;;
10851;SDS011;5479;52.046;6.314;2022-12-07T08:51:05;8.53;;;3.70;;
10851;SDS011;5479;52.046;6.314;2022-12-07T08:53:33;10.00;;;3.60;;
10851;SDS011;5479;52.046;6.314;2022-12-07T08:56:02;6.93;;;3.17;;
10851;SDS011;5479;52.046;6.314;2022-12-07T08:58:32;7.83;;;3.43;;
10851;SDS011;5479;52.046;6.314;2022-12-07T09:01:01;11.83;;;3.50;;
10851;SDS011;5479;52.046;6.314;2022-12-07T09:03:29;8.13;;;3.50;;
10851;SDS011;5479;52.046;6.314;2022-12-07T09:05:57;7.93;;;3.23;;
10851;SDS011;5479;52.046;6.314;2022-12-07T09:08:28;13.40;;;3.30;;
10851;SDS011;5479;52.046;6.314;2022-12-07T09:10:59;6.87;;;2.87;;
10851;SDS011;5479;52.046;6.314;2022-12-07T09:13:27;6.17;;;2.93;;
10851;SDS011;5479;52.046;6.314;2022-12-07T09:15:55;7.97;;;2.70;;
10851;SDS011;5479;52.046;6.314;2022-12-07T09:18:23;8.03;;;2.63;;
10851;SDS011;5479;52.046;6.314;2022-12-07T09:20:51;10.10;;;3.60;;
10851;SDS011;5479;52.046;6.314;2022-12-07T09:23:19;5.63;;;2.50;;
10851;SDS011;5479;52.046;6.314;2022-12-07T09:25:48;10.57;;;2.67;;
10851;SDS011;5479;52.046;6.314;2022-12-07T09:28:16;7.20;;;2.40;;
10851;SDS011;5479;52.046;6.314;2022-12-07T09:30:45;6.70;;;2.87;;
10851;SDS011;5479;52.046;6.314;2022-12-07T09:33:13;6.33;;;2.13;;
10851;SDS011;5479;52.046;6.314;2022-12-07T09:35:44;19.87;;;4.43;;
10851;SDS011;5479;52.046;6.314;2022-12-07T09:38:12;8.20;;;2.53;;
10851;SDS011;5479;52.046;6.314;2022-12-07T09:40:40;6.00;;;2.10;;
10851;SDS011;5479;52.046;6.314;2022-12-07T09:43:13;6.07;;;2.17;;
10851;SDS011;5479;52.046;6.314;2022-12-07T09:45:43;7.37;;;2.47;;
10851;SDS011;5479;52.046;6.314;2022-12-07T09:48:15;5.03;;;2.33;;
10851;SDS011;5479;52.046;6.314;2022-12-07T09:50:45;6.07;;;2.20;;
10851;SDS011;5479;52.046;6.314;2022-12-07T09:53:16;6.37;;;2.10;;
10851;SDS011;5479;52.046;6.314;2022-12-07T09:55:48;6.17;;;2.00;;
10851;SDS011;5479;52.046;6.314;2022-12-07T09:58:19;6.37;;;2.20;;
10851;SDS011;5479;52.046;6.314;2022-12-07T10:00:50;15.90;;;3.63;;
10851;SDS011;5479;52.046;6.314;2022-12-07T10:03:20;7.10;;;2.70;;
10851;SDS011;5479;52.046;6.314;2022-12-07T10:05:50;6.70;;;2.50;;
10851;SDS011;5479;52.046;6.314;2022-12-07T10:08:19;6.70;;;2.60;;
10851;SDS011;5479;52.046;6.314;2022-12-07T10:10:48;9.47;;;2.87;;
10851;SDS011;5479;52.046;6.314;2022-12-07T10:13:21;6.60;;;2.50;;
10851;SDS011;5479;52.046;6.314;2022-12-07T10:15:51;9.53;;;2.40;;
10851;SDS011;5479;52.046;6.314;2022-12-07T10:18:30;5.83;;;1.73;;
10851;SDS011;5479;52.046;6.314;2022-12-07T10:21:04;4.83;;;1.83;;
10851;SDS011;5479;52.046;6.314;2022-12-07T10:23:37;6.30;;;2.20;;
10851;SDS011;5479;52.046;6.314;2022-12-07T10:26:20;8.07;;;2.37;;
10851;SDS011;5479;52.046;6.314;2022-12-07T10:28:57;6.37;;;2.03;;
10851;SDS011;5479;52.046;6.314;2022-12-07T10:31:27;5.83;;;1.87;;
10851;SDS011;5479;52.046;6.314;2022-12-07T10:33:56;6.13;;;1.70;;
10851;SDS011;5479;52.046;6.314;2022-12-07T10:36:25;8.93;;;2.00;;
10851;SDS011;5479;52.046;6.314;2022-12-07T10:38:58;7.07;;;1.80;;
10851;SDS011;5479;52.046;6.314;2022-12-07T10:41:29;5.70;;;1.60;;
10851;SDS011;5479;52.046;6.314;2022-12-07T10:43:59;7.33;;;2.63;;
10851;SDS011;5479;52.046;6.314;2022-12-07T10:55:43;4.30;;;1.50;;
10851;SDS011;5479;52.046;6.314;2022-12-07T10:58:43;7.13;;;1.80;;
10851;SDS011;5479;52.046;6.314;2022-12-07T11:01:25;7.03;;;1.77;;
10851;SDS011;5479;52.046;6.314;2022-12-07T11:04:07;5.70;;;1.80;;
10851;SDS011;5479;52.046;6.314;2022-12-07T11:06:48;6.03;;;1.93;;
10851;SDS011;5479;52.046;6.314;2022-12-07T11:09:29;6.47;;;2.17;;
10851;SDS011;5479;52.046;6.314;2022-12-07T11:12:21;4.63;;;1.70;;
10851;SDS011;5479;52.046;6.314;2022-12-07T11:15:01;8.30;;;2.20;;
10851;SDS011;5479;52.046;6.314;2022-12-07T11:17:43;5.53;;;1.87;;
10851;SDS011;5479;52.046;6.314;2022-12-07T11:20:20;6.77;;;2.00;;
10851;SDS011;5479;52.046;6.314;2022-12-07T11:23:01;5.73;;;2.10;;
10851;SDS011;5479;52.046;6.314;2022-12-07T11:25:38;5.30;;;1.80;;
10851;SDS011;5479;52.046;6.314;2022-12-07T11:28:18;5.97;;;1.80;;
10851;SDS011;5479;52.046;6.314;2022-12-07T11:30:57;5.10;;;1.90;;
10851;SDS011;5479;52.046;6.314;2022-12-07T11:33:39;6.20;;;2.00;;
10851;SDS011;5479;52.046;6.314;2022-12-07T11:36:16;6.63;;;1.97;;
10851;SDS011;5479;52.046;6.314;2022-12-07T11:39:01;4.90;;;2.03;;
10851;SDS011;5479;52.046;6.314;2022-12-07T11:41:33;7.50;;;2.10;;
10851;SDS011;5479;52.046;6.314;2022-12-07T11:44:05;5.87;;;2.00;;
10851;SDS011;5479;52.046;6.314;2022-12-07T11:46:43;5.20;;;2.03;;
10851;SDS011;5479;52.046;6.314;2022-12-07T11:49:20;7.23;;;2.50;;
10851;SDS011;5479;52.046;6.314;2022-12-07T11:51:55;6.80;;;2.63;;
10851;SDS011;5479;52.046;6.314;2022-12-07T11:54:28;7.33;;;2.40;;
10851;SDS011;5479;52.046;6.314;2022-12-07T11:57:02;6.77;;;2.57;;
10851;SDS011;5479;52.046;6.314;2022-12-07T11:59:38;5.97;;;2.30;;
10851;SDS011;5479;52.046;6.314;2022-12-07T12:02:13;5.90;;;1.87;;
10851;SDS011;5479;52.046;6.314;2022-12-07T12:04:49;5.60;;;1.90;;
10851;SDS011;5479;52.046;6.314;2022-12-07T12:07:23;7.73;;;1.97;;
10851;SDS011;5479;52.046;6.314;2022-12-07T12:09:54;6.67;;;1.80;;
10851;SDS011;5479;52.046;6.314;2022-12-07T12:12:42;4.70;;;1.80;;
10851;SDS011;5479;52.046;6.314;2022-12-07T12:15:26;7.13;;;2.00;;
10851;SDS011;5479;52.046;6.314;2022-12-07T12:18:26;7.33;;;1.90;;
10851;SDS011;5479;52.046;6.314;2022-12-07T12:21:10;5.93;;;2.10;;
10851;SDS011;5479;52.046;6.314;2022-12-07T12:23:42;6.20;;;2.10;;
10851;SDS011;5479;52.046;6.314;2022-12-07T12:26:15;6.67;;;1.77;;
10851;SDS011;5479;52.046;6.314;2022-12-07T12:28:52;5.63;;;2.00;;
10851;SDS011;5479;52.046;6.314;2022-12-07T12:31:32;6.03;;;1.93;;
10851;SDS011;5479;52.046;6.314;2022-12-07T12:34:03;9.07;;;2.47;;
10851;SDS011;5479;52.046;6.314;2022-12-07T12:36:47;5.47;;;2.00;;
10851;SDS011;5479;52.046;6.314;2022-12-07T12:39:16;5.60;;;1.93;;
10851;SDS011;5479;52.046;6.314;2022-12-07T12:41:55;7.30;;;1.90;;
10851;SDS011;5479;52.046;6.314;2022-12-07T12:50:31;5.37;;;1.40;;
10851;SDS011;5479;52.046;6.314;2022-12-07T12:53:11;3.80;;;1.60;;
10851;SDS011;5479;52.046;6.314;2022-12-07T13:01:51;6.40;;;1.90;;
10851;SDS011;5479;52.046;6.314;2022-12-07T13:04:39;4.07;;;1.60;;
10851;SDS011;5479;52.046;6.314;2022-12-07T13:10:28;4.50;;;1.60;;
10851;SDS011;5479;52.046;6.314;2022-12-07T13:13:03;7.00;;;2.33;;
10851;SDS011;5479;52.046;6.314;2022-12-07T13:15:52;4.50;;;1.80;;
10851;SDS011;5479;52.046;6.314;2022-12-07T13:18:25;6.40;;;2.53;;
10851;SDS011;5479;52.046;6.314;2022-12-07T13:21:02;7.63;;;2.17;;
10851;SDS011;5479;52.046;6.314;2022-12-07T13:23:54;5.40;;;1.90;;
10851;SDS011;5479;52.046;6.314;2022-12-07T13:26:33;5.53;;;1.60;;
10851;SDS011;5479;52.046;6.314;2022-12-07T13:29:06;7.10;;;1.90;;
10851;SDS011;5479;52.046;6.314;2022-12-07T13:31:38;7.93;;;1.80;;
10851;SDS011;5479;52.046;6.314;2022-12-07T13:36:56;5.70;;;1.70;;
10851;SDS011;5479;52.046;6.314;2022-12-07T13:39:25;5.10;;;1.67;;
10851;SDS011;5479;52.046;6.314;2022-12-07T13:41:56;5.10;;;1.60;;
10851;SDS011;5479;52.046;6.314;2022-12-07T13:44:28;5.37;;;1.77;;
10851;SDS011;5479;52.046;6.314;2022-12-07T13:47:03;5.57;;;1.70;;
10851;SDS011;5479;52.046;6.314;2022-12-07T13:49:37;3.30;;;1.60;;
10851;SDS011;5479;52.046;6.314;2022-12-07T13:52:13;6.23;;;1.70;;
10851;SDS011;5479;52.046;6.314;2022-12-07T13:54:44;4.70;;;1.70;;
10851;SDS011;5479;52.046;6.314;2022-12-07T13:57:16;3.40;;;1.93;;
10851;SDS011;5479;52.046;6.314;2022-12-07T13:59:44;6.67;;;1.80;;
10851;SDS011;5479;52.046;6.314;2022-12-07T14:02:17;5.23;;;2.00;;
10851;SDS011;5479;52.046;6.314;2022-12-07T14:04:48;6.90;;;2.23;;
10851;SDS011;5479;52.046;6.314;2022-12-07T14:07:19;7.80;;;1.90;;
10851;SDS011;5479;52.046;6.314;2022-12-07T14:09:56;5.13;;;1.70;;
10851;SDS011;5479;52.046;6.314;2022-12-07T14:12:28;8.10;;;2.07;;
10851;SDS011;5479;52.046;6.314;2022-12-07T14:14:57;6.20;;;2.50;;
10851;SDS011;5479;52.046;6.314;2022-12-07T14:17:27;7.97;;;2.40;;
10851;SDS011;5479;52.046;6.314;2022-12-07T14:19:55;4.53;;;1.80;;
10851;SDS011;5479;52.046;6.314;2022-12-07T14:22:25;5.97;;;1.97;;
10851;SDS011;5479;52.046;6.314;2022-12-07T14:24:59;7.13;;;1.80;;
10851;SDS011;5479;52.046;6.314;2022-12-07T14:27:32;5.10;;;1.57;;
10851;SDS011;5479;52.046;6.314;2022-12-07T14:30:03;6.67;;;1.87;;
10851;SDS011;5479;52.046;6.314;2022-12-07T14:32:34;4.57;;;1.90;;
10851;SDS011;5479;52.046;6.314;2022-12-07T14:35:07;7.63;;;1.73;;
10851;SDS011;5479;52.046;6.314;2022-12-07T14:37:38;6.33;;;1.93;;
10851;SDS011;5479;52.046;6.314;2022-12-07T14:40:12;3.97;;;1.67;;
10851;SDS011;5479;52.046;6.314;2022-12-07T14:42:42;4.47;;;1.80;;
10851;SDS011;5479;52.046;6.314;2022-12-07T14:45:15;7.50;;;2.30;;
10851;SDS011;5479;52.046;6.314;2022-12-07T14:47:45;10.33;;;2.30;;
10851;SDS011;5479;52.046;6.314;2022-12-07T14:50:14;8.33;;;2.67;;
10851;SDS011;5479;52.046;6.314;2022-12-07T14:52:43;6.00;;;2.07;;
10851;SDS011;5479;52.046;6.314;2022-12-07T14:55:18;5.77;;;1.90;;
10851;SDS011;5479;52.046;6.314;2022-12-07T14:57:52;4.87;;;2.10;;
10851;SDS011;5479;52.046;6.314;2022-12-07T15:00:21;4.33;;;1.63;;
10851;SDS011;5479;52.046;6.314;2022-12-07T15:02:50;3.77;;;1.70;;
10851;SDS011;5479;52.046;6.314;2022-12-07T15:05:18;2.60;;;1.40;;
10851;SDS011;5479;52.046;6.314;2022-12-07T15:07:47;4.53;;;1.60;;
10851;SDS011;5479;52.046;6.314;2022-12-07T15:10:18;5.87;;;2.00;;
10851;SDS011;5479;52.046;6.314;2022-12-07T15:12:47;5.93;;;2.90;;
10851;SDS011;5479;52.046;6.314;2022-12-07T15:15:17;5.33;;;2.00;;
10851;SDS011;5479;52.046;6.314;2022-12-07T15:17:45;4.27;;;2.47;;
10851;SDS011;5479;52.046;6.314;2022-12-07T15:20:14;2.60;;;1.50;;
10851;SDS011;5479;52.046;6.314;2022-12-07T15:22:43;4.50;;;1.83;;
10851;SDS011;5479;52.046;6.314;2022-12-07T15:25:12;6.37;;;1.87;;
10851;SDS011;5479;52.046;6.314;2022-12-07T15:27:41;4.30;;;1.67;;
10851;SDS011;5479;52.046;6.314;2022-12-07T15:30:09;4.83;;;1.80;;
10851;SDS011;5479;52.046;6.314;2022-12-07T15:32:39;4.60;;;1.80;;
10851;SDS011;5479;52.046;6.314;2022-12-07T15:35:07;5.53;;;1.90;;
10851;SDS011;5479;52.046;6.314;2022-12-07T15:37:36;2.90;;;1.50;;
10851;SDS011;5479;52.046;6.314;2022-12-07T15:40:06;4.07;;;1.50;;
10851;SDS011;5479;52.046;6.314;2022-12-07T15:42:35;4.53;;;1.80;;
10851;SDS011;5479;52.046;6.314;2022-12-07T15:45:04;5.90;;;1.93;;
10851;SDS011;5479;52.046;6.314;2022-12-07T15:47:33;4.17;;;2.07;;
10851;SDS011;5479;52.046;6.314;2022-12-07T15:50:05;5.20;;;1.80;;
10851;SDS011;5479;52.046;6.314;2022-12-07T15:52:34;3.90;;;1.93;;
10851;SDS011;5479;52.046;6.314;2022-12-07T15:55:04;5.83;;;2.00;;
10851;SDS011;5479;52.046;6.314;2022-12-07T15:57:33;2.93;;;1.60;;